sensor_id;sensor_type;location;lat;lon;timestamp;temperature;humidity
45549;DHT22;31270;48.328;10.096;2022-09-25T00:00:22;9.80;99.90
45549;DHT22;31270;48.328;10.096;2022-09-25T00:02:48;9.80;99.90
45549;DHT22;31270;48.328;10.096;2022-09-25T00:05:14;9.80;99.90
45549;DHT22;31270;48.328;10.096;2022-09-25T00:07:39;9.80;99.90
45549;DHT22;31270;48.328;10.096;2022-09-25T00:10:05;9.80;99.90
45549;DHT22;31270;48.328;10.096;2022-09-25T00:12:31;9.80;99.90
45549;DHT22;31270;48.328;10.096;2022-09-25T00:14:57;9.90;99.90
45549;DHT22;31270;48.328;10.096;2022-09-25T00:17:22;9.80;99.90
45549;DHT22;31270;48.328;10.096;2022-09-25T00:19:48;9.90;99.90
45549;DHT22;31270;48.328;10.096;2022-09-25T00:22:17;9.80;99.90
45549;DHT22;31270;48.328;10.096;2022-09-25T00:24:43;9.90;99.90
45549;DHT22;31270;48.328;10.096;2022-09-25T00:27:09;10.00;99.90
45549;DHT22;31270;48.328;10.096;2022-09-25T00:29:36;9.90;99.90
45549;DHT22;31270;48.328;10.096;2022-09-25T00:32:06;10.00;99.90
45549;DHT22;31270;48.328;10.096;2022-09-25T00:34:32;9.90;99.90
45549;DHT22;31270;48.328;10.096;2022-09-25T00:36:58;9.90;99.90
45549;DHT22;31270;48.328;10.096;2022-09-25T00:39:23;10.00;99.90
45549;DHT22;31270;48.328;10.096;2022-09-25T00:41:51;10.00;99.90
45549;DHT22;31270;48.328;10.096;2022-09-25T00:47:14;10.10;99.90
45549;DHT22;31270;48.328;10.096;2022-09-25T00:49:40;10.20;99.90
45549;DHT22;31270;48.328;10.096;2022-09-25T00:52:09;10.20;99.90
45549;DHT22;31270;48.328;10.096;2022-09-25T00:54:50;10.20;99.90
45549;DHT22;31270;48.328;10.096;2022-09-25T00:57:22;10.30;99.90
45549;DHT22;31270;48.328;10.096;2022-09-25T00:59:54;10.30;99.90
45549;DHT22;31270;48.328;10.096;2022-09-25T01:02:30;10.40;99.90
45549;DHT22;31270;48.328;10.096;2022-09-25T01:05:00;10.40;99.90
45549;DHT22;31270;48.328;10.096;2022-09-25T01:07:27;10.50;99.90
45549;DHT22;31270;48.328;10.096;2022-09-25T01:09:54;10.50;99.90
45549;DHT22;31270;48.328;10.096;2022-09-25T01:12:24;10.50;99.90
45549;DHT22;31270;48.328;10.096;2022-09-25T01:14:50;10.60;99.90
45549;DHT22;31270;48.328;10.096;2022-09-25T01:17:25;10.60;99.90
45549;DHT22;31270;48.328;10.096;2022-09-25T01:23:24;10.60;99.90
45549;DHT22;31270;48.328;10.096;2022-09-25T01:29:25;10.60;99.90
45549;DHT22;31270;48.328;10.096;2022-09-25T01:32:28;10.60;99.90
45549;DHT22;31270;48.328;10.096;2022-09-25T01:40:33;10.50;99.90
45549;DHT22;31270;48.328;10.096;2022-09-25T01:45:40;10.60;99.90
45549;DHT22;31270;48.328;10.096;2022-09-25T01:48:08;10.70;99.90
45549;DHT22;31270;48.328;10.096;2022-09-25T01:51:00;10.70;99.90
45549;DHT22;31270;48.328;10.096;2022-09-25T01:53:54;10.80;99.90
45549;DHT22;31270;48.328;10.096;2022-09-25T01:56:35;10.70;99.90
45549;DHT22;31270;48.328;10.096;2022-09-25T01:59:09;10.80;99.90
45549;DHT22;31270;48.328;10.096;2022-09-25T02:01:40;10.80;99.90
45549;DHT22;31270;48.328;10.096;2022-09-25T02:04:11;10.90;99.90
45549;DHT22;31270;48.328;10.096;2022-09-25T02:06:42;10.90;99.90
45549;DHT22;31270;48.328;10.096;2022-09-25T02:09:14;11.00;99.90
45549;DHT22;31270;48.328;10.096;2022-09-25T02:11:47;10.90;99.90
45549;DHT22;31270;48.328;10.096;2022-09-25T02:14:20;10.90;99.90
45549;DHT22;31270;48.328;10.096;2022-09-25T02:16:49;10.90;99.90
45549;DHT22;31270;48.328;10.096;2022-09-25T02:19:16;10.90;99.90
45549;DHT22;31270;48.328;10.096;2022-09-25T02:22:12;10.90;99.90
45549;DHT22;31270;48.328;10.096;2022-09-25T02:24:56;10.90;99.90
45549;DHT22;31270;48.328;10.096;2022-09-25T02:27:26;10.90;99.90
45549;DHT22;31270;48.328;10.096;2022-09-25T02:29:52;11.00;99.90
45549;DHT22;31270;48.328;10.096;2022-09-25T02:32:23;11.00;99.90
45549;DHT22;31270;48.328;10.096;2022-09-25T02:34:51;11.10;99.90
45549;DHT22;31270;48.328;10.096;2022-09-25T02:37:17;11.10;99.90
45549;DHT22;31270;48.328;10.096;2022-09-25T02:39:52;11.10;99.90
45549;DHT22;31270;48.328;10.096;2022-09-25T02:45:11;11.10;99.90
45549;DHT22;31270;48.328;10.096;2022-09-25T02:48:12;11.10;99.90
45549;DHT22;31270;48.328;10.096;2022-09-25T02:51:00;11.10;99.90
45549;DHT22;31270;48.328;10.096;2022-09-25T02:53:45;11.10;99.90
45549;DHT22;31270;48.328;10.096;2022-09-25T03:02:26;11.20;99.90
45549;DHT22;31270;48.328;10.096;2022-09-25T03:04:53;11.20;99.90
45549;DHT22;31270;48.328;10.096;2022-09-25T03:07:19;11.20;99.90
45549;DHT22;31270;48.328;10.096;2022-09-25T03:09:47;11.20;99.90
45549;DHT22;31270;48.328;10.096;2022-09-25T03:12:14;11.20;99.90
45549;DHT22;31270;48.328;10.096;2022-09-25T03:14:40;11.20;99.90
45549;DHT22;31270;48.328;10.096;2022-09-25T03:17:07;11.20;99.90
45549;DHT22;31270;48.328;10.096;2022-09-25T03:19:34;11.20;99.90
45549;DHT22;31270;48.328;10.096;2022-09-25T03:22:00;11.20;99.90
45549;DHT22;31270;48.328;10.096;2022-09-25T03:24:26;11.40;99.90
45549;DHT22;31270;48.328;10.096;2022-09-25T03:26:52;11.30;99.90
45549;DHT22;31270;48.328;10.096;2022-09-25T03:29:18;11.30;99.90
45549;DHT22;31270;48.328;10.096;2022-09-25T03:31:44;11.30;99.90
45549;DHT22;31270;48.328;10.096;2022-09-25T03:34:15;11.30;99.90
45549;DHT22;31270;48.328;10.096;2022-09-25T03:36:41;11.30;99.90
45549;DHT22;31270;48.328;10.096;2022-09-25T03:39:07;11.30;99.90
45549;DHT22;31270;48.328;10.096;2022-09-25T03:41:35;11.30;99.90
45549;DHT22;31270;48.328;10.096;2022-09-25T03:44:01;11.30;99.90
45549;DHT22;31270;48.328;10.096;2022-09-25T03:46:34;11.30;99.90
45549;DHT22;31270;48.328;10.096;2022-09-25T03:49:00;11.30;99.90
45549;DHT22;31270;48.328;10.096;2022-09-25T03:51:27;11.30;99.90
45549;DHT22;31270;48.328;10.096;2022-09-25T03:53:54;11.30;99.90
45549;DHT22;31270;48.328;10.096;2022-09-25T03:56:22;11.30;99.90
45549;DHT22;31270;48.328;10.096;2022-09-25T03:58:50;11.30;99.90
45549;DHT22;31270;48.328;10.096;2022-09-25T04:01:16;11.30;99.90
45549;DHT22;31270;48.328;10.096;2022-09-25T04:03:44;11.30;99.90
45549;DHT22;31270;48.328;10.096;2022-09-25T04:06:13;11.30;99.90
45549;DHT22;31270;48.328;10.096;2022-09-25T04:08:39;11.30;99.90
45549;DHT22;31270;48.328;10.096;2022-09-25T04:11:06;11.30;99.90
45549;DHT22;31270;48.328;10.096;2022-09-25T04:13:33;11.30;99.90
45549;DHT22;31270;48.328;10.096;2022-09-25T04:16:01;11.40;99.90
45549;DHT22;31270;48.328;10.096;2022-09-25T04:18:28;11.30;99.90
45549;DHT22;31270;48.328;10.096;2022-09-25T04:21:04;11.30;99.90
45549;DHT22;31270;48.328;10.096;2022-09-25T04:23:31;11.30;99.90
45549;DHT22;31270;48.328;10.096;2022-09-25T04:25:57;11.40;99.90
45549;DHT22;31270;48.328;10.096;2022-09-25T04:28:23;11.30;99.90
45549;DHT22;31270;48.328;10.096;2022-09-25T04:30:49;11.30;99.90
45549;DHT22;31270;48.328;10.096;2022-09-25T04:33:15;11.30;99.90
45549;DHT22;31270;48.328;10.096;2022-09-25T04:36:00;11.30;99.90
45549;DHT22;31270;48.328;10.096;2022-09-25T04:38:26;11.30;99.90
45549;DHT22;31270;48.328;10.096;2022-09-25T04:40:52;11.50;99.90
45549;DHT22;31270;48.328;10.096;2022-09-25T04:43:18;11.40;99.90
45549;DHT22;31270;48.328;10.096;2022-09-25T04:45:43;11.40;99.90
45549;DHT22;31270;48.328;10.096;2022-09-25T04:48:11;11.40;99.90
45549;DHT22;31270;48.328;10.096;2022-09-25T04:50:37;11.40;99.90
45549;DHT22;31270;48.328;10.096;2022-09-25T04:53:03;11.30;99.90
45549;DHT22;31270;48.328;10.096;2022-09-25T04:55:29;11.40;99.90
45549;DHT22;31270;48.328;10.096;2022-09-25T04:57:57;11.40;99.90
45549;DHT22;31270;48.328;10.096;2022-09-25T05:00:24;11.40;99.90
45549;DHT22;31270;48.328;10.096;2022-09-25T05:02:51;11.40;99.90
45549;DHT22;31270;48.328;10.096;2022-09-25T05:05:17;11.40;99.90
45549;DHT22;31270;48.328;10.096;2022-09-25T05:07:51;11.30;99.90
45549;DHT22;31270;48.328;10.096;2022-09-25T05:10:17;11.30;99.90
45549;DHT22;31270;48.328;10.096;2022-09-25T05:12:43;11.40;99.90
45549;DHT22;31270;48.328;10.096;2022-09-25T05:15:10;11.40;99.90
45549;DHT22;31270;48.328;10.096;2022-09-25T05:17:35;11.30;99.90
45549;DHT22;31270;48.328;10.096;2022-09-25T05:20:01;11.30;99.90
45549;DHT22;31270;48.328;10.096;2022-09-25T05:22:27;11.30;99.90
45549;DHT22;31270;48.328;10.096;2022-09-25T05:24:53;11.30;99.90
45549;DHT22;31270;48.328;10.096;2022-09-25T05:27:19;11.30;99.90
45549;DHT22;31270;48.328;10.096;2022-09-25T05:29:45;11.30;99.90
45549;DHT22;31270;48.328;10.096;2022-09-25T05:32:14;11.30;99.90
45549;DHT22;31270;48.328;10.096;2022-09-25T05:34:40;11.40;99.90
45549;DHT22;31270;48.328;10.096;2022-09-25T05:37:06;11.40;99.90
45549;DHT22;31270;48.328;10.096;2022-09-25T05:39:31;11.40;99.90
45549;DHT22;31270;48.328;10.096;2022-09-25T05:41:57;11.40;99.90
45549;DHT22;31270;48.328;10.096;2022-09-25T05:44:29;11.40;99.90
45549;DHT22;31270;48.328;10.096;2022-09-25T05:46:54;11.40;99.90
45549;DHT22;31270;48.328;10.096;2022-09-25T05:49:22;11.50;99.90
45549;DHT22;31270;48.328;10.096;2022-09-25T05:51:48;11.50;99.90
45549;DHT22;31270;48.328;10.096;2022-09-25T05:54:14;11.50;99.90
45549;DHT22;31270;48.328;10.096;2022-09-25T05:56:39;11.70;99.90
45549;DHT22;31270;48.328;10.096;2022-09-25T05:59:05;11.50;99.90
45549;DHT22;31270;48.328;10.096;2022-09-25T06:01:31;11.60;99.90
45549;DHT22;31270;48.328;10.096;2022-09-25T06:03:56;11.50;99.90
45549;DHT22;31270;48.328;10.096;2022-09-25T06:06:22;11.60;99.90
45549;DHT22;31270;48.328;10.096;2022-09-25T06:08:47;11.70;99.90
45549;DHT22;31270;48.328;10.096;2022-09-25T06:11:13;11.60;99.90
45549;DHT22;31270;48.328;10.096;2022-09-25T06:13:38;11.80;99.90
45549;DHT22;31270;48.328;10.096;2022-09-25T06:16:13;11.70;99.90
45549;DHT22;31270;48.328;10.096;2022-09-25T06:18:39;11.70;99.90
45549;DHT22;31270;48.328;10.096;2022-09-25T06:21:05;11.80;99.90
45549;DHT22;31270;48.328;10.096;2022-09-25T06:23:31;11.70;99.90
45549;DHT22;31270;48.328;10.096;2022-09-25T06:26:04;11.80;99.90
45549;DHT22;31270;48.328;10.096;2022-09-25T06:28:31;11.80;99.90
45549;DHT22;31270;48.328;10.096;2022-09-25T06:31:03;11.80;99.90
45549;DHT22;31270;48.328;10.096;2022-09-25T06:33:29;11.70;99.90
45549;DHT22;31270;48.328;10.096;2022-09-25T06:35:54;11.80;99.90
45549;DHT22;31270;48.328;10.096;2022-09-25T06:38:20;11.80;99.90
45549;DHT22;31270;48.328;10.096;2022-09-25T06:40:46;11.70;99.90
45549;DHT22;31270;48.328;10.096;2022-09-25T06:43:14;11.80;99.90
45549;DHT22;31270;48.328;10.096;2022-09-25T06:45:40;11.80;99.90
45549;DHT22;31270;48.328;10.096;2022-09-25T06:48:11;11.80;99.90
45549;DHT22;31270;48.328;10.096;2022-09-25T06:50:44;11.90;99.90
45549;DHT22;31270;48.328;10.096;2022-09-25T06:53:11;11.90;99.90
45549;DHT22;31270;48.328;10.096;2022-09-25T06:55:37;11.90;99.90
45549;DHT22;31270;48.328;10.096;2022-09-25T06:58:04;12.10;99.90
45549;DHT22;31270;48.328;10.096;2022-09-25T07:00:31;11.90;99.90
45549;DHT22;31270;48.328;10.096;2022-09-25T07:02:58;11.90;99.90
45549;DHT22;31270;48.328;10.096;2022-09-25T07:05:43;11.90;99.90
45549;DHT22;31270;48.328;10.096;2022-09-25T07:08:17;11.90;99.90
45549;DHT22;31270;48.328;10.096;2022-09-25T07:10:52;11.90;99.90
45549;DHT22;31270;48.328;10.096;2022-09-25T07:13:19;11.90;99.90
45549;DHT22;31270;48.328;10.096;2022-09-25T07:15:58;11.80;99.90
45549;DHT22;31270;48.328;10.096;2022-09-25T07:18:25;11.90;99.90
45549;DHT22;31270;48.328;10.096;2022-09-25T07:20:52;11.80;99.90
45549;DHT22;31270;48.328;10.096;2022-09-25T07:23:19;11.90;99.90
45549;DHT22;31270;48.328;10.096;2022-09-25T07:25:45;11.90;99.90
45549;DHT22;31270;48.328;10.096;2022-09-25T07:28:12;11.90;99.90
45549;DHT22;31270;48.328;10.096;2022-09-25T07:30:41;12.00;99.90
45549;DHT22;31270;48.328;10.096;2022-09-25T07:33:07;12.00;99.90
45549;DHT22;31270;48.328;10.096;2022-09-25T07:35:34;12.10;99.90
45549;DHT22;31270;48.328;10.096;2022-09-25T07:38:00;12.10;99.90
45549;DHT22;31270;48.328;10.096;2022-09-25T07:40:26;12.10;99.90
45549;DHT22;31270;48.328;10.096;2022-09-25T07:43:05;12.10;99.90
45549;DHT22;31270;48.328;10.096;2022-09-25T07:45:31;12.10;99.90
45549;DHT22;31270;48.328;10.096;2022-09-25T07:47:58;12.10;99.90
45549;DHT22;31270;48.328;10.096;2022-09-25T07:50:25;12.10;99.90
45549;DHT22;31270;48.328;10.096;2022-09-25T07:52:52;12.20;99.90
45549;DHT22;31270;48.328;10.096;2022-09-25T07:55:18;12.20;99.90
45549;DHT22;31270;48.328;10.096;2022-09-25T07:57:44;12.10;99.90
45549;DHT22;31270;48.328;10.096;2022-09-25T08:00:11;12.10;99.90
45549;DHT22;31270;48.328;10.096;2022-09-25T08:02:37;12.00;99.90
45549;DHT22;31270;48.328;10.096;2022-09-25T08:05:03;12.10;99.90
45549;DHT22;31270;48.328;10.096;2022-09-25T08:07:29;12.10;99.90
45549;DHT22;31270;48.328;10.096;2022-09-25T08:09:54;12.20;99.90
45549;DHT22;31270;48.328;10.096;2022-09-25T08:12:20;12.20;99.90
45549;DHT22;31270;48.328;10.096;2022-09-25T08:14:49;12.30;99.90
45549;DHT22;31270;48.328;10.096;2022-09-25T08:17:14;12.20;99.90
45549;DHT22;31270;48.328;10.096;2022-09-25T08:19:40;12.20;99.90
45549;DHT22;31270;48.328;10.096;2022-09-25T08:22:05;12.20;99.90
45549;DHT22;31270;48.328;10.096;2022-09-25T08:24:31;12.10;99.90
45549;DHT22;31270;48.328;10.096;2022-09-25T08:26:57;12.10;99.90
45549;DHT22;31270;48.328;10.096;2022-09-25T08:29:22;12.10;99.90
45549;DHT22;31270;48.328;10.096;2022-09-25T08:31:49;12.20;99.90
45549;DHT22;31270;48.328;10.096;2022-09-25T08:34:15;12.30;99.90
45549;DHT22;31270;48.328;10.096;2022-09-25T08:36:42;12.30;99.90
45549;DHT22;31270;48.328;10.096;2022-09-25T08:39:08;12.30;99.90
45549;DHT22;31270;48.328;10.096;2022-09-25T08:41:49;12.40;99.90
45549;DHT22;31270;48.328;10.096;2022-09-25T08:44:20;12.40;99.90
45549;DHT22;31270;48.328;10.096;2022-09-25T08:46:58;12.40;99.90
45549;DHT22;31270;48.328;10.096;2022-09-25T08:52:25;12.50;99.90
45549;DHT22;31270;48.328;10.096;2022-09-25T08:54:50;12.50;99.90
45549;DHT22;31270;48.328;10.096;2022-09-25T08:57:35;12.60;99.90
45549;DHT22;31270;48.328;10.096;2022-09-25T09:00:12;12.50;99.90
45549;DHT22;31270;48.328;10.096;2022-09-25T09:02:55;12.50;99.90
45549;DHT22;31270;48.328;10.096;2022-09-25T09:05:28;12.60;99.90
45549;DHT22;31270;48.328;10.096;2022-09-25T09:08:11;12.60;99.90
45549;DHT22;31270;48.328;10.096;2022-09-25T09:10:44;12.70;99.90
45549;DHT22;31270;48.328;10.096;2022-09-25T09:16:08;12.90;99.90
45549;DHT22;31270;48.328;10.096;2022-09-25T09:18:38;13.10;99.90
45549;DHT22;31270;48.328;10.096;2022-09-25T09:27:04;13.10;99.90
45549;DHT22;31270;48.328;10.096;2022-09-25T09:40:24;13.60;99.90
45549;DHT22;31270;48.328;10.096;2022-09-25T09:45:54;13.80;99.90
45549;DHT22;31270;48.328;10.096;2022-09-25T09:48:40;14.00;99.90
45549;DHT22;31270;48.328;10.096;2022-09-25T09:51:17;14.10;99.90
45549;DHT22;31270;48.328;10.096;2022-09-25T09:53:51;14.20;99.90
45549;DHT22;31270;48.328;10.096;2022-09-25T09:56:23;14.50;99.90
45549;DHT22;31270;48.328;10.096;2022-09-25T09:59:11;14.80;99.90
45549;DHT22;31270;48.328;10.096;2022-09-25T10:01:39;14.90;99.90
45549;DHT22;31270;48.328;10.096;2022-09-25T10:04:16;15.00;99.90
45549;DHT22;31270;48.328;10.096;2022-09-25T10:07:03;15.20;99.90
45549;DHT22;31270;48.328;10.096;2022-09-25T10:09:29;15.30;99.90
45549;DHT22;31270;48.328;10.096;2022-09-25T10:14:40;15.40;99.90
45549;DHT22;31270;48.328;10.096;2022-09-25T10:17:07;15.60;99.90
45549;DHT22;31270;48.328;10.096;2022-09-25T10:22:15;16.00;99.90
45549;DHT22;31270;48.328;10.096;2022-09-25T10:27:21;16.20;99.90
45549;DHT22;31270;48.328;10.096;2022-09-25T10:35:23;16.40;99.90
45549;DHT22;31270;48.328;10.096;2022-09-25T10:37:55;16.70;99.90
45549;DHT22;31270;48.328;10.096;2022-09-25T10:40:34;16.70;99.90
45549;DHT22;31270;48.328;10.096;2022-09-25T10:43:19;16.90;99.90
45549;DHT22;31270;48.328;10.096;2022-09-25T10:45:45;17.00;99.90
45549;DHT22;31270;48.328;10.096;2022-09-25T10:48:30;17.00;99.90
45549;DHT22;31270;48.328;10.096;2022-09-25T10:51:16;17.00;99.90
45549;DHT22;31270;48.328;10.096;2022-09-25T10:53:47;16.90;99.90
45549;DHT22;31270;48.328;10.096;2022-09-25T10:56:29;17.00;99.90
45549;DHT22;31270;48.328;10.096;2022-09-25T10:59:01;17.10;99.90
45549;DHT22;31270;48.328;10.096;2022-09-25T11:01:38;17.40;99.90
45549;DHT22;31270;48.328;10.096;2022-09-25T11:04:12;17.70;99.90
45549;DHT22;31270;48.328;10.096;2022-09-25T11:06:48;18.00;99.90
45549;DHT22;31270;48.328;10.096;2022-09-25T11:09:24;18.10;99.90
45549;DHT22;31270;48.328;10.096;2022-09-25T11:11:53;18.40;99.90
45549;DHT22;31270;48.328;10.096;2022-09-25T11:14:30;18.70;99.90
45549;DHT22;31270;48.328;10.096;2022-09-25T11:17:01;18.70;99.90
45549;DHT22;31270;48.328;10.096;2022-09-25T11:19:35;18.60;99.90
45549;DHT22;31270;48.328;10.096;2022-09-25T11:27:37;18.70;99.90
45549;DHT22;31270;48.328;10.096;2022-09-25T11:30:21;18.80;99.90
45549;DHT22;31270;48.328;10.096;2022-09-25T11:35:26;19.30;99.90
45549;DHT22;31270;48.328;10.096;2022-09-25T11:41:09;19.10;99.90
45549;DHT22;31270;48.328;10.096;2022-09-25T11:43:47;19.10;99.90
45549;DHT22;31270;48.328;10.096;2022-09-25T11:46:34;19.20;99.90
45549;DHT22;31270;48.328;10.096;2022-09-25T11:49:20;19.30;99.90
45549;DHT22;31270;48.328;10.096;2022-09-25T12:06:44;20.50;99.90
45549;DHT22;31270;48.328;10.096;2022-09-25T12:09:37;20.20;99.90
45549;DHT22;31270;48.328;10.096;2022-09-25T12:12:19;20.30;99.90
45549;DHT22;31270;48.328;10.096;2022-09-25T12:23:21;20.30;99.90
45549;DHT22;31270;48.328;10.096;2022-09-25T12:34:33;19.70;99.90
45549;DHT22;31270;48.328;10.096;2022-09-25T12:37:17;19.50;99.90
45549;DHT22;31270;48.328;10.096;2022-09-25T12:40:21;19.60;99.90
45549;DHT22;31270;48.328;10.096;2022-09-25T12:43:21;19.30;99.90
45549;DHT22;31270;48.328;10.096;2022-09-25T12:48:47;18.80;99.90
45549;DHT22;31270;48.328;10.096;2022-09-25T12:51:31;18.50;99.90
45549;DHT22;31270;48.328;10.096;2022-09-25T12:57:00;17.80;99.90
45549;DHT22;31270;48.328;10.096;2022-09-25T12:59:36;17.80;99.90
45549;DHT22;31270;48.328;10.096;2022-09-25T13:07:56;17.60;99.90
45549;DHT22;31270;48.328;10.096;2022-09-25T13:13:03;17.50;99.90
45549;DHT22;31270;48.328;10.096;2022-09-25T13:15:36;17.20;99.90
45549;DHT22;31270;48.328;10.096;2022-09-25T13:18:04;17.00;99.90
45549;DHT22;31270;48.328;10.096;2022-09-25T13:23:09;16.70;99.90
45549;DHT22;31270;48.328;10.096;2022-09-25T13:25:50;16.80;99.90
45549;DHT22;31270;48.328;10.096;2022-09-25T13:28:25;16.60;99.90
45549;DHT22;31270;48.328;10.096;2022-09-25T13:31:10;16.50;99.90
45549;DHT22;31270;48.328;10.096;2022-09-25T13:39:00;17.40;99.90
45549;DHT22;31270;48.328;10.096;2022-09-25T13:41:56;17.40;99.90
45549;DHT22;31270;48.328;10.096;2022-09-25T13:50:21;17.50;99.90
45549;DHT22;31270;48.328;10.096;2022-09-25T14:03:01;17.70;99.90
45549;DHT22;31270;48.328;10.096;2022-09-25T14:05:35;17.70;99.90
45549;DHT22;31270;48.328;10.096;2022-09-25T14:08:10;17.50;99.90
45549;DHT22;31270;48.328;10.096;2022-09-25T14:10:36;17.40;99.90
45549;DHT22;31270;48.328;10.096;2022-09-25T14:13:11;17.10;99.90
45549;DHT22;31270;48.328;10.096;2022-09-25T14:15:38;16.90;99.90
45549;DHT22;31270;48.328;10.096;2022-09-25T14:18:15;16.80;99.90
45549;DHT22;31270;48.328;10.096;2022-09-25T14:20:46;16.60;99.90
45549;DHT22;31270;48.328;10.096;2022-09-25T14:23:22;16.60;99.90
45549;DHT22;31270;48.328;10.096;2022-09-25T14:26:02;16.50;99.90
45549;DHT22;31270;48.328;10.096;2022-09-25T14:28:33;16.50;99.90
45549;DHT22;31270;48.328;10.096;2022-09-25T14:39:46;16.70;99.90
45549;DHT22;31270;48.328;10.096;2022-09-25T14:42:36;16.80;99.90
45549;DHT22;31270;48.328;10.096;2022-09-25T14:48:03;17.00;99.90
45549;DHT22;31270;48.328;10.096;2022-09-25T14:50:36;17.10;99.90
45549;DHT22;31270;48.328;10.096;2022-09-25T14:53:07;17.20;99.90
45549;DHT22;31270;48.328;10.096;2022-09-25T14:55:38;17.30;99.90
45549;DHT22;31270;48.328;10.096;2022-09-25T14:58:12;17.20;99.90
45549;DHT22;31270;48.328;10.096;2022-09-25T15:00:52;17.30;99.90
45549;DHT22;31270;48.328;10.096;2022-09-25T15:03:23;17.20;99.90
45549;DHT22;31270;48.328;10.096;2022-09-25T15:05:51;17.10;99.90
45549;DHT22;31270;48.328;10.096;2022-09-25T15:08:34;16.90;99.90
45549;DHT22;31270;48.328;10.096;2022-09-25T15:11:22;16.80;99.90
45549;DHT22;31270;48.328;10.096;2022-09-25T15:13:50;16.80;99.90
45549;DHT22;31270;48.328;10.096;2022-09-25T15:16:22;16.80;99.90
45549;DHT22;31270;48.328;10.096;2022-09-25T15:19:25;16.90;99.90
45549;DHT22;31270;48.328;10.096;2022-09-25T15:21:52;16.70;99.90
45549;DHT22;31270;48.328;10.096;2022-09-25T15:24:25;16.80;99.90
45549;DHT22;31270;48.328;10.096;2022-09-25T15:27:00;16.80;99.90
45549;DHT22;31270;48.328;10.096;2022-09-25T15:29:36;16.60;99.90
45549;DHT22;31270;48.328;10.096;2022-09-25T15:32:03;16.70;99.90
45549;DHT22;31270;48.328;10.096;2022-09-25T15:34:30;16.80;99.90
45549;DHT22;31270;48.328;10.096;2022-09-25T15:37:28;16.70;99.90
45549;DHT22;31270;48.328;10.096;2022-09-25T15:39:54;16.60;99.90
45549;DHT22;31270;48.328;10.096;2022-09-25T15:42:20;16.50;99.90
45549;DHT22;31270;48.328;10.096;2022-09-25T15:44:47;16.50;99.90
45549;DHT22;31270;48.328;10.096;2022-09-25T15:50:02;16.50;99.90
45549;DHT22;31270;48.328;10.096;2022-09-25T15:52:31;16.50;99.90
45549;DHT22;31270;48.328;10.096;2022-09-25T15:55:05;16.40;99.90
45549;DHT22;31270;48.328;10.096;2022-09-25T15:57:34;16.30;99.90
45549;DHT22;31270;48.328;10.096;2022-09-25T16:00:06;16.20;99.90
45549;DHT22;31270;48.328;10.096;2022-09-25T16:03:21;16.20;99.90
45549;DHT22;31270;48.328;10.096;2022-09-25T16:06:16;16.20;99.90
45549;DHT22;31270;48.328;10.096;2022-09-25T16:08:42;16.20;99.90
45549;DHT22;31270;48.328;10.096;2022-09-25T16:11:21;16.20;99.90
45549;DHT22;31270;48.328;10.096;2022-09-25T16:13:49;16.20;99.90
45549;DHT22;31270;48.328;10.096;2022-09-25T16:16:27;16.10;99.90
45549;DHT22;31270;48.328;10.096;2022-09-25T16:18:57;16.00;99.90
45549;DHT22;31270;48.328;10.096;2022-09-25T16:21:37;15.90;99.90
45549;DHT22;31270;48.328;10.096;2022-09-25T16:24:05;15.70;99.90
45549;DHT22;31270;48.328;10.096;2022-09-25T16:26:41;15.60;99.90
45549;DHT22;31270;48.328;10.096;2022-09-25T16:29:31;15.40;99.90
45549;DHT22;31270;48.328;10.096;2022-09-25T16:32:05;15.30;99.90
45549;DHT22;31270;48.328;10.096;2022-09-25T16:34:36;15.10;99.90
45549;DHT22;31270;48.328;10.096;2022-09-25T16:37:06;15.10;99.90
45549;DHT22;31270;48.328;10.096;2022-09-25T16:39:37;15.10;99.90
45549;DHT22;31270;48.328;10.096;2022-09-25T16:42:29;15.20;99.90
45549;DHT22;31270;48.328;10.096;2022-09-25T16:47:45;15.00;99.90
45549;DHT22;31270;48.328;10.096;2022-09-25T16:50:12;15.00;99.90
45549;DHT22;31270;48.328;10.096;2022-09-25T16:52:39;14.90;99.90
45549;DHT22;31270;48.328;10.096;2022-09-25T16:55:14;14.90;99.90
45549;DHT22;31270;48.328;10.096;2022-09-25T16:57:40;14.90;99.90
45549;DHT22;31270;48.328;10.096;2022-09-25T17:00:12;14.90;99.90
45549;DHT22;31270;48.328;10.096;2022-09-25T17:02:41;14.80;99.90
45549;DHT22;31270;48.328;10.096;2022-09-25T17:05:25;14.80;99.90
45549;DHT22;31270;48.328;10.096;2022-09-25T17:07:54;14.80;99.90
45549;DHT22;31270;48.328;10.096;2022-09-25T17:10:23;14.80;99.90
45549;DHT22;31270;48.328;10.096;2022-09-25T17:12:50;14.70;99.90
45549;DHT22;31270;48.328;10.096;2022-09-25T17:15:20;14.70;99.90
45549;DHT22;31270;48.328;10.096;2022-09-25T17:17:48;14.70;99.90
45549;DHT22;31270;48.328;10.096;2022-09-25T17:20:18;14.60;99.90
45549;DHT22;31270;48.328;10.096;2022-09-25T17:22:43;14.70;99.90
45549;DHT22;31270;48.328;10.096;2022-09-25T17:25:35;14.60;99.90
45549;DHT22;31270;48.328;10.096;2022-09-25T17:28:04;14.50;99.90
45549;DHT22;31270;48.328;10.096;2022-09-25T17:30:30;14.50;99.90
45549;DHT22;31270;48.328;10.096;2022-09-25T17:32:55;14.40;99.90
45549;DHT22;31270;48.328;10.096;2022-09-25T17:35:37;14.30;99.90
45549;DHT22;31270;48.328;10.096;2022-09-25T17:38:04;14.30;99.90
45549;DHT22;31270;48.328;10.096;2022-09-25T17:40:30;14.20;99.90
45549;DHT22;31270;48.328;10.096;2022-09-25T17:42:57;14.20;99.90
45549;DHT22;31270;48.328;10.096;2022-09-25T17:47:59;14.00;99.90
45549;DHT22;31270;48.328;10.096;2022-09-25T17:50:25;14.00;99.90
45549;DHT22;31270;48.328;10.096;2022-09-25T17:52:53;13.90;99.90
45549;DHT22;31270;48.328;10.096;2022-09-25T17:55:20;13.90;99.90
45549;DHT22;31270;48.328;10.096;2022-09-25T17:57:46;13.80;99.90
45549;DHT22;31270;48.328;10.096;2022-09-25T18:00:13;13.80;99.90
45549;DHT22;31270;48.328;10.096;2022-09-25T18:02:39;13.70;99.90
45549;DHT22;31270;48.328;10.096;2022-09-25T18:05:05;13.60;99.90
45549;DHT22;31270;48.328;10.096;2022-09-25T18:07:30;13.60;99.90
45549;DHT22;31270;48.328;10.096;2022-09-25T18:09:56;13.60;99.90
45549;DHT22;31270;48.328;10.096;2022-09-25T18:12:22;13.60;99.90
45549;DHT22;31270;48.328;10.096;2022-09-25T18:14:48;13.50;99.90
45549;DHT22;31270;48.328;10.096;2022-09-25T18:17:15;13.50;99.90
45549;DHT22;31270;48.328;10.096;2022-09-25T18:19:41;13.50;99.90
45549;DHT22;31270;48.328;10.096;2022-09-25T18:22:25;13.50;99.90
45549;DHT22;31270;48.328;10.096;2022-09-25T18:24:53;13.50;99.90
45549;DHT22;31270;48.328;10.096;2022-09-25T18:27:22;13.50;99.90
45549;DHT22;31270;48.328;10.096;2022-09-25T18:29:48;13.40;99.90